Tuesday, June 19, 2018, 1:02 AM EDT
Back to Local

KMRB, Martinsburg Eastern Wv Reg

Location: Martinsburg, WV, United States Lat: 39.4
Local Time: 1:02 AM EDT ( 5:02 GMT) Lon: -77.983
Time Zone: US/Eastern Elev: 557 ft

Show me the last for .
Show Coded

Time T Td Feel RH Dir Speed Gust Alt SLP Vis Weather Sky Remarks
2018-06-18 23:53 80 69 84 69 180° 6 - 29.90 29.88 10 CLR None
2018-06-18 22:53 81 69 85 67 190° 6 - 29.91 29.89 10 FEW120 None
2018-06-18 21:53 84 69 88 60 210° 6 - 29.90 29.88 10 CLR None
2018-06-18 20:53 83 70 87 65 250° 7 - 29.89 29.87 9 CLR None
2018-06-18 19:53 87 73 95 63 230° 6 - 29.88 29.86 9 CLR 6-hr Min Temp (8pm): 87.1°F
6-hr Max Temp (8pm): 93.9°F
2018-06-18 18:53 91 70 98 50 240° 10 - 29.89 29.87 10 CLR None
2018-06-18 17:53 92 72 101 52 230° 7 - 29.91 29.89 9 CLR None
2018-06-18 16:53 93 72 102 50 240° 12 - 29.93 29.91 10 CLR None
2018-06-18 15:53 93 72 102 50 250° 10 - 29.95 29.93 10 CLR None
2018-06-18 14:53 92 71 100 50 260° 10 - 29.98 29.96 10 CLR None
2018-06-18 13:53 92 72 101 52 Variable 6 - 29.99 29.97 10 CLR 6-hr Min Temp (2pm): 73.0°F
6-hr Max Temp (2pm): 93.0°F
2018-06-18 12:53 89 73 98 59 - Calm - 30.02 30.00 10 SCT042 BKN048 None
2018-06-18 11:53 88 73 96 61 260° 6 - 30.04 30.02 10 CLR None
2018-06-18 10:53 85 73 92 67 210° 7 - 30.05 30.03 10 CLR None
2018-06-18 09:53 81 73 87 76 Variable 3 - 30.05 30.03 10 CLR None
2018-06-18 08:53 79 71 83 76 200° 6 - 30.06 30.04 10 None
2018-06-18 07:53 73 70 77 90 200° 3 - 30.07 30.05 7 CLR 6-hr Min Temp (8am): 66.0°F
6-hr Max Temp (8am): 73.0°F
2018-06-18 07:13 69 68 - 96 - Calm - 30.07 - 3 BR CLR None
2018-06-18 06:53 68 68 - 100 140° 3 - 30.07 30.05 2 BR FEW048 None
2018-06-18 06:37 68 67 - 96 - Calm - 30.07 - 2 BR FEW047 None
2018-06-18 06:07 67 66 - 96 - Calm - 30.07 - 3 BR CLR None
2018-06-18 05:53 66 66 - 100 - Calm - 30.07 30.05 1 BR CLR None
2018-06-18 05:45 66 66 - 100 - Calm - 30.06 - 2 BR CLR None
2018-06-18 05:18 67 66 - 96 - Calm - 30.06 - 1 BR CLR None
2018-06-18 04:53 68 67 - 96 - Calm - 30.06 30.05 3 BR CLR None
2018-06-18 04:40 68 67 - 96 - Calm - 30.06 - 3 BR CLR None
2018-06-18 04:31 67 67 - 100 - Calm - 30.06 - 2 BR CLR None
2018-06-18 03:53 68 67 - 96 - Calm - 30.06 30.05 4 BR CLR None
2018-06-18 02:53 69 68 - 96 - Calm - 30.07 30.05 4 BR CLR None
2018-06-18 01:53 69 68 - 96 - Calm - 30.07 30.05 6 BR CLR 6-hr Min Temp (2am): 69.1°F
6-hr Max Temp (2am): 81.0°F

Support USWX by starting your Amazon purchase here.